createdAt,value
2018-09-27T00:00:44.804Z,66.60
2018-09-27T00:03:13.372Z,65.70
2018-09-27T00:05:41.878Z,65.30
2018-09-27T00:08:10.447Z,65.60
2018-09-27T00:10:39.053Z,65.50
2018-09-27T00:13:07.709Z,65.40
2018-09-27T00:15:36.137Z,65.60
2018-09-27T00:18:04.830Z,65.70
2018-09-27T00:20:33.331Z,65.80
2018-09-27T00:23:01.820Z,65.60
2018-09-27T00:25:30.630Z,66.60
2018-09-27T00:27:59.213Z,66.10
2018-09-27T00:30:27.785Z,65.90
2018-09-27T00:32:56.292Z,66.10
2018-09-27T00:35:24.732Z,65.90
2018-09-27T00:37:53.359Z,66.10
2018-09-27T00:40:21.815Z,66.00
2018-09-27T00:42:50.374Z,66.10
2018-09-27T00:45:18.906Z,66.10
2018-09-27T00:47:47.345Z,66.40
2018-09-27T00:50:15.678Z,66.70
2018-09-27T00:52:44.299Z,66.90
2018-09-27T00:55:12.684Z,66.90
2018-09-27T00:57:41.145Z,66.90
2018-09-27T01:00:09.846Z,66.80
2018-09-27T01:02:38.328Z,66.80
2018-09-27T01:05:07.004Z,66.90
2018-09-27T01:07:35.388Z,66.80
2018-09-27T01:10:03.952Z,66.40
2018-09-27T01:12:32.257Z,66.60
2018-09-27T01:15:00.911Z,66.40
2018-09-27T01:17:29.412Z,66.50
2018-09-27T01:19:57.813Z,66.60
2018-09-27T01:22:26.238Z,66.60
2018-09-27T01:24:54.569Z,66.50
2018-09-27T01:27:22.918Z,66.60
2018-09-27T01:29:51.246Z,66.70
2018-09-27T01:32:19.602Z,66.50
2018-09-27T01:34:47.925Z,66.70
2018-09-27T01:37:16.393Z,67.50
2018-09-27T01:39:44.742Z,67.50
2018-09-27T01:42:13.235Z,67.50
2018-09-27T01:44:41.639Z,68.20
2018-09-27T01:47:10.019Z,68.90
2018-09-27T01:49:38.369Z,69.10
2018-09-27T01:52:06.984Z,68.90
2018-09-27T01:54:35.274Z,68.90
2018-09-27T01:57:03.826Z,69.10
2018-09-27T01:59:32.138Z,69.20
2018-09-27T02:02:00.506Z,69.50
2018-09-27T02:04:29.171Z,69.80
2018-09-27T02:06:57.687Z,70.40
2018-09-27T02:09:26.150Z,70.70
2018-09-27T02:11:54.746Z,70.60
2018-09-27T02:14:23.190Z,70.80
2018-09-27T02:16:51.550Z,71.10
2018-09-27T02:19:19.923Z,71.00
2018-09-27T02:21:48.270Z,70.80
2018-09-27T02:24:16.584Z,71.00
2018-09-27T02:26:45.033Z,71.00
2018-09-27T02:29:13.363Z,70.90
2018-09-27T02:31:41.710Z,70.90
2018-09-27T02:34:10.139Z,71.00
2018-09-27T02:36:38.469Z,70.60
2018-09-27T02:39:08.649Z,70.00
2018-09-27T02:41:37.184Z,69.40
2018-09-27T02:44:05.698Z,69.10
2018-09-27T02:46:34.061Z,68.80
2018-09-27T02:49:02.746Z,69.00
2018-09-27T02:51:31.269Z,69.20
2018-09-27T02:53:59.626Z,69.00
2018-09-27T02:56:27.957Z,69.30
2018-09-27T02:58:56.483Z,69.40
2018-09-27T03:01:25.267Z,69.50
2018-09-27T03:03:53.742Z,69.90
2018-09-27T03:06:22.253Z,70.20
2018-09-27T03:08:50.683Z,70.50
2018-09-27T03:11:19.061Z,71.30
2018-09-27T03:13:47.591Z,71.20
2018-09-27T03:16:15.894Z,71.20
2018-09-27T03:18:44.241Z,71.40
2018-09-27T03:21:12.608Z,71.60
2018-09-27T03:23:42.005Z,71.60
2018-09-27T03:26:10.441Z,71.80
2018-09-27T03:28:38.805Z,72.00
2018-09-27T03:31:07.146Z,72.00
2018-09-27T03:33:35.515Z,72.10
2018-09-27T03:36:04.026Z,72.20
2018-09-27T03:38:32.367Z,72.20
2018-09-27T03:41:00.717Z,72.40
2018-09-27T03:43:29.135Z,72.40
2018-09-27T03:45:57.465Z,72.40
2018-09-27T03:48:25.781Z,72.30
2018-09-27T03:50:54.361Z,72.40
2018-09-27T03:53:22.805Z,72.50
2018-09-27T03:55:51.149Z,72.30
2018-09-27T03:58:19.644Z,72.40
2018-09-27T04:00:47.945Z,72.40
2018-09-27T04:03:16.354Z,72.40
2018-09-27T04:05:44.794Z,72.60
2018-09-27T04:08:13.237Z,72.50
2018-09-27T04:10:41.645Z,72.70
2018-09-27T04:13:10.037Z,72.70
2018-09-27T04:15:38.493Z,72.70
2018-09-27T04:18:07.002Z,72.60
2018-09-27T04:20:42.738Z,71.90
2018-09-27T04:23:11.134Z,71.60
2018-09-27T04:25:39.460Z,71.70
2018-09-27T04:28:07.797Z,71.50
2018-09-27T04:30:36.152Z,71.20
2018-09-27T04:33:04.565Z,71.30
2018-09-27T04:35:32.869Z,71.20
2018-09-27T04:38:01.269Z,71.00
2018-09-27T04:40:29.581Z,70.80
2018-09-27T04:42:58.165Z,70.90
2018-09-27T04:45:26.629Z,71.10
2018-09-27T04:47:54.975Z,71.30
2018-09-27T04:50:23.501Z,71.40
2018-09-27T04:52:51.869Z,71.60
2018-09-27T04:55:20.405Z,71.60
2018-09-27T04:57:48.833Z,72.30
2018-09-27T05:00:17.347Z,72.50
2018-09-27T05:02:45.883Z,72.60
2018-09-27T05:05:14.515Z,72.70
2018-09-27T05:07:43.173Z,72.70
2018-09-27T05:10:11.555Z,72.70
2018-09-27T05:12:40.047Z,72.60
2018-09-27T05:15:08.547Z,72.60
2018-09-27T05:17:36.899Z,72.70
2018-09-27T05:20:05.401Z,72.80
2018-09-27T05:22:33.753Z,72.80
2018-09-27T05:25:02.119Z,72.90
2018-09-27T05:27:30.599Z,72.90
2018-09-27T05:29:59.076Z,72.80
2018-09-27T05:32:27.524Z,72.80
2018-09-27T05:34:55.881Z,72.90
2018-09-27T05:37:24.265Z,73.00
2018-09-27T05:39:52.590Z,73.20
2018-09-27T05:42:21.841Z,73.20
2018-09-27T05:44:50.388Z,73.10
2018-09-27T05:47:18.788Z,73.20
2018-09-27T05:49:47.140Z,73.30
2018-09-27T05:52:15.720Z,73.20
2018-09-27T05:54:44.108Z,73.20
2018-09-27T05:57:12.445Z,73.30
2018-09-27T05:59:40.786Z,73.30
2018-09-27T06:02:09.544Z,73.30
2018-09-27T06:04:38.085Z,73.30
2018-09-27T06:07:06.506Z,73.30
2018-09-27T06:09:34.830Z,74.30
2018-09-27T06:12:03.346Z,73.20
2018-09-27T06:14:31.722Z,73.10
2018-09-27T06:17:00.297Z,73.10
2018-09-27T06:19:28.903Z,73.00
2018-09-27T06:21:57.227Z,73.20
2018-09-27T06:24:25.626Z,73.10
2018-09-27T06:26:53.993Z,73.10
2018-09-27T06:29:22.345Z,73.00
2018-09-27T06:31:50.726Z,72.80
2018-09-27T06:34:19.069Z,72.70
2018-09-27T06:36:47.627Z,72.60
2018-09-27T06:39:16.062Z,72.50
2018-09-27T06:41:44.497Z,72.30
2018-09-27T06:44:12.859Z,72.10
2018-09-27T06:46:41.336Z,72.00
2018-09-27T06:49:09.726Z,72.10
2018-09-27T06:51:38.108Z,72.00
2018-09-27T06:54:06.457Z,71.70
2018-09-27T06:56:34.865Z,71.50
2018-09-27T06:59:03.351Z,71.70
2018-09-27T07:01:31.722Z,71.60
2018-09-27T07:04:00.062Z,71.60
2018-09-27T07:06:28.434Z,71.30
2018-09-27T07:08:56.816Z,71.40
2018-09-27T07:11:25.226Z,71.20
2018-09-27T07:13:53.617Z,71.20
2018-09-27T07:16:21.987Z,71.10
2018-09-27T07:18:50.602Z,70.90
2018-09-27T07:21:19.054Z,70.70
2018-09-27T07:23:47.441Z,70.90
2018-09-27T07:26:15.831Z,71.00
2018-09-27T07:28:44.353Z,71.20
2018-09-27T07:31:12.831Z,71.00
2018-09-27T07:33:41.093Z,70.50
2018-09-27T07:36:09.491Z,70.40
2018-09-27T07:38:37.865Z,70.60
2018-09-27T07:41:06.193Z,70.90
2018-09-27T07:43:34.665Z,70.20
2018-09-27T07:46:03.028Z,70.00
2018-09-27T07:48:31.688Z,70.30
2018-09-27T07:51:00.223Z,70.00
2018-09-27T07:53:28.693Z,69.50
2018-09-27T07:55:57.033Z,68.80
2018-09-27T07:58:25.397Z,68.50
2018-09-27T08:00:53.745Z,68.30
2018-09-27T08:03:22.221Z,68.20
2018-09-27T08:05:50.530Z,68.00
2018-09-27T08:08:18.883Z,68.00
2018-09-27T08:10:47.215Z,68.60
2018-09-27T08:13:15.588Z,67.80
2018-09-27T08:15:43.963Z,67.80
2018-09-27T08:18:12.309Z,67.90
2018-09-27T08:20:40.731Z,68.70
2018-09-27T08:23:08.991Z,67.60
2018-09-27T08:25:37.488Z,67.30
2018-09-27T08:28:06.362Z,67.00
2018-09-27T08:30:34.739Z,66.90
2018-09-27T08:33:03.196Z,66.80
2018-09-27T08:35:31.649Z,66.60
2018-09-27T08:38:00.121Z,66.10
2018-09-27T08:40:28.441Z,65.80
2018-09-27T08:42:56.836Z,65.90
2018-09-27T08:45:25.417Z,65.60
2018-09-27T08:47:53.555Z,65.90
2018-09-27T08:50:22.018Z,65.80
2018-09-27T08:52:50.546Z,65.40
2018-09-27T08:55:19.106Z,65.00
2018-09-27T08:57:47.442Z,64.50
2018-09-27T09:00:15.878Z,63.80
2018-09-27T09:02:44.266Z,63.20
2018-09-27T09:05:12.670Z,62.50
2018-09-27T09:07:41.138Z,62.10
2018-09-27T09:10:09.618Z,61.70
2018-09-27T09:12:38.079Z,61.00
2018-09-27T09:15:06.507Z,60.90
2018-09-27T09:17:34.856Z,60.80
2018-09-27T09:20:03.351Z,60.40
2018-09-27T09:22:31.902Z,60.00
2018-09-27T09:25:00.352Z,60.00
2018-09-27T09:27:28.768Z,60.00
2018-09-27T09:29:57.113Z,59.80
2018-09-27T09:32:25.650Z,59.40
2018-09-27T09:34:54.038Z,59.60
2018-09-27T09:37:22.467Z,59.40
2018-09-27T09:39:51.128Z,58.90
2018-09-27T09:42:19.486Z,59.10
2018-09-27T09:44:48.033Z,59.10
2018-09-27T09:47:16.585Z,58.60
2018-09-27T09:49:45.021Z,58.40
2018-09-27T09:52:13.494Z,58.20
2018-09-27T09:54:42.193Z,58.30
2018-09-27T09:57:10.593Z,58.00
2018-09-27T09:59:39.122Z,57.90
2018-09-27T10:02:07.522Z,57.70
2018-09-27T10:04:35.995Z,57.60
2018-09-27T10:07:04.554Z,57.50
2018-09-27T10:09:32.995Z,56.90
2018-09-27T10:12:01.485Z,56.70
2018-09-27T10:14:29.877Z,56.00
2018-09-27T10:16:58.282Z,55.90
2018-09-27T10:19:26.771Z,55.40
2018-09-27T10:21:55.916Z,54.90
2018-09-27T10:24:24.374Z,54.30
2018-09-27T10:26:52.846Z,54.10
2018-09-27T10:29:21.312Z,52.40
2018-09-27T10:31:49.786Z,52.20
2018-09-27T10:34:18.251Z,51.60
2018-09-27T10:36:46.620Z,51.00
2018-09-27T10:39:14.995Z,50.00
2018-09-27T10:41:43.855Z,49.40
2018-09-27T10:44:12.690Z,49.40
2018-09-27T10:46:41.219Z,48.80
2018-09-27T10:49:09.733Z,48.00
2018-09-27T10:51:38.082Z,45.90
2018-09-27T10:54:06.618Z,45.60
2018-09-27T10:56:35.203Z,46.00
2018-09-27T10:59:03.815Z,45.80
2018-09-27T11:01:32.189Z,45.00
2018-09-27T11:04:00.633Z,44.50
2018-09-27T11:06:29.123Z,43.00
2018-09-27T11:08:57.858Z,41.60
2018-09-27T11:11:26.304Z,41.70
2018-09-27T11:13:54.767Z,40.80
2018-09-27T11:16:23.167Z,41.10
2018-09-27T11:18:51.598Z,41.60
2018-09-27T11:21:20.021Z,41.50
2018-09-27T11:23:48.496Z,41.60
2018-09-27T11:26:16.974Z,41.30
2018-09-27T11:28:50.951Z,41.00
2018-09-27T11:31:24.505Z,40.80
2018-09-27T11:33:52.926Z,40.20
2018-09-27T11:36:21.482Z,40.40
2018-09-27T11:38:50.007Z,40.00
2018-09-27T11:41:18.519Z,39.60
2018-09-27T11:43:46.979Z,39.80
2018-09-27T11:46:15.517Z,40.00
2018-09-27T11:48:43.911Z,39.30
2018-09-27T11:51:12.297Z,39.30
2018-09-27T11:53:40.773Z,39.70
2018-09-27T11:56:09.298Z,39.70
2018-09-27T11:58:37.635Z,39.70
2018-09-27T12:01:06.121Z,39.30
2018-09-27T12:03:34.600Z,39.50
2018-09-27T12:06:03.113Z,39.20
2018-09-27T12:08:31.509Z,38.50
2018-09-27T12:10:59.859Z,38.60
2018-09-27T12:13:28.422Z,38.10
2018-09-27T12:15:56.914Z,37.50
2018-09-27T12:18:25.346Z,38.00
2018-09-27T12:20:53.751Z,38.50
2018-09-27T12:23:22.198Z,38.00
2018-09-27T12:25:50.738Z,38.40
2018-09-27T12:28:19.768Z,37.80
2018-09-27T12:30:48.259Z,37.70
2018-09-27T12:33:16.801Z,37.60
2018-09-27T12:35:45.281Z,37.90
2018-09-27T12:38:13.777Z,36.70
2018-09-27T12:40:42.302Z,36.40
2018-09-27T12:43:10.620Z,36.70
2018-09-27T12:45:39.118Z,36.40
2018-09-27T12:48:07.573Z,36.60
2018-09-27T12:50:36.452Z,36.80
2018-09-27T12:53:04.971Z,36.40
2018-09-27T12:55:33.519Z,36.60
2018-09-27T12:58:01.959Z,36.60
2018-09-27T13:00:30.343Z,36.50
2018-09-27T13:02:58.875Z,36.70
2018-09-27T13:05:27.370Z,35.20
2018-09-27T13:07:56.083Z,34.60
2018-09-27T13:10:25.286Z,35.00
2018-09-27T13:12:54.058Z,34.50
2018-09-27T13:15:22.506Z,35.10
2018-09-27T13:17:51.062Z,34.50
2018-09-27T13:20:19.936Z,34.60
2018-09-27T13:22:48.322Z,34.20
2018-09-27T13:25:16.702Z,33.70
2018-09-27T13:27:45.104Z,33.50
2018-09-27T13:30:14.556Z,33.10
2018-09-27T13:32:42.912Z,33.00
2018-09-27T13:35:11.392Z,33.10
2018-09-27T13:37:40.022Z,33.10
2018-09-27T13:40:08.529Z,33.10
2018-09-27T13:42:36.985Z,33.10
2018-09-27T13:45:05.674Z,32.50
2018-09-27T13:47:34.148Z,32.60
2018-09-27T13:50:02.822Z,32.40
2018-09-27T13:52:31.399Z,32.10
2018-09-27T13:54:59.866Z,32.30
2018-09-27T13:57:28.568Z,31.80
2018-09-27T13:59:56.881Z,31.40
2018-09-27T14:02:25.276Z,30.90
2018-09-27T14:04:53.683Z,31.00
2018-09-27T14:07:22.185Z,31.20
2018-09-27T14:09:50.561Z,31.50
2018-09-27T14:12:19.095Z,31.20
2018-09-27T14:14:47.449Z,31.90
2018-09-27T14:17:15.929Z,31.40
2018-09-27T14:19:44.373Z,31.50
2018-09-27T14:22:12.942Z,31.30
2018-09-27T14:24:41.333Z,31.30
2018-09-27T14:27:09.794Z,31.20
2018-09-27T14:29:38.177Z,31.10
2018-09-27T14:32:06.812Z,31.40
2018-09-27T14:34:35.278Z,32.00
2018-09-27T14:37:03.819Z,32.20
2018-09-27T14:39:32.358Z,32.00
2018-09-27T14:42:00.786Z,32.10
2018-09-27T14:44:29.245Z,32.20
2018-09-27T14:46:57.786Z,32.30
2018-09-27T14:49:26.360Z,32.20
2018-09-27T14:51:54.848Z,32.30
2018-09-27T14:54:23.225Z,32.30
2018-09-27T14:56:51.596Z,31.80
2018-09-27T14:59:20.312Z,31.70
2018-09-27T15:01:49.902Z,32.20
2018-09-27T15:04:18.246Z,32.10
2018-09-27T15:06:46.804Z,31.80
2018-09-27T15:09:15.211Z,32.20
2018-09-27T15:11:43.577Z,32.10
2018-09-27T15:14:11.990Z,32.50
2018-09-27T15:16:40.386Z,32.80
2018-09-27T15:19:09.019Z,33.20
2018-09-27T15:21:37.446Z,33.80
2018-09-27T15:24:05.936Z,34.10
2018-09-27T15:26:34.493Z,33.90
2018-09-27T15:29:02.972Z,34.10
2018-09-27T15:31:31.656Z,34.50
2018-09-27T15:34:00.191Z,34.70
2018-09-27T15:36:28.672Z,34.90
2018-09-27T15:38:57.122Z,34.70
2018-09-27T15:41:25.571Z,35.10
2018-09-27T15:43:54.081Z,35.30
2018-09-27T15:46:22.538Z,35.20
2018-09-27T15:48:51.155Z,35.20
2018-09-27T15:51:19.729Z,35.70
2018-09-27T15:53:48.368Z,35.70
2018-09-27T15:56:16.906Z,35.20
2018-09-27T15:58:45.365Z,35.30
2018-09-27T16:01:13.829Z,35.20
2018-09-27T16:03:42.295Z,35.20
2018-09-27T16:06:10.797Z,35.50
2018-09-27T16:08:39.210Z,35.00
2018-09-27T16:11:07.806Z,34.70
2018-09-27T16:13:36.237Z,34.30
2018-09-27T16:16:04.809Z,34.50
2018-09-27T16:18:33.300Z,34.80
2018-09-27T16:21:01.799Z,35.10
2018-09-27T16:23:30.283Z,35.10
2018-09-27T16:25:58.695Z,35.40
2018-09-27T16:28:27.319Z,35.40
2018-09-27T16:30:55.796Z,35.90
2018-09-27T16:33:24.444Z,36.00
2018-09-27T16:35:53.174Z,36.10
2018-09-27T16:38:21.760Z,36.30
2018-09-27T16:40:50.261Z,36.40
2018-09-27T16:43:18.926Z,36.70
2018-09-27T16:45:47.515Z,37.00
2018-09-27T16:48:15.982Z,37.40
2018-09-27T16:50:44.529Z,38.00
2018-09-27T16:53:12.997Z,38.40
2018-09-27T16:55:41.412Z,45.20
2018-09-27T16:58:09.971Z,46.50
2018-09-27T17:00:38.387Z,45.00
2018-09-27T17:03:06.828Z,44.50
2018-09-27T17:05:35.437Z,43.00
2018-09-27T17:08:03.871Z,44.20
2018-09-27T17:10:32.455Z,43.70
2018-09-27T17:13:00.972Z,43.20
2018-09-27T17:15:29.632Z,43.20
2018-09-27T17:17:58.063Z,42.80
2018-09-27T17:20:26.686Z,42.70
2018-09-27T17:22:55.119Z,42.30
2018-09-27T17:25:23.704Z,42.70
2018-09-27T17:27:52.173Z,43.20
2018-09-27T17:30:20.665Z,44.20
2018-09-27T17:32:49.073Z,44.90
2018-09-27T17:35:17.511Z,44.40
2018-09-27T17:37:46.097Z,45.10
2018-09-27T17:40:14.833Z,45.70
2018-09-27T17:42:43.474Z,45.60
2018-09-27T17:45:12.068Z,45.80
2018-09-27T17:47:40.554Z,46.00
2018-09-27T17:50:09.156Z,45.50
2018-09-27T17:52:37.868Z,45.40
2018-09-27T17:55:06.411Z,45.50
2018-09-27T17:57:34.943Z,45.60
2018-09-27T18:00:03.674Z,47.20
2018-09-27T18:02:32.163Z,47.90
2018-09-27T18:05:00.605Z,48.00
2018-09-27T18:07:29.232Z,48.70
2018-09-27T18:09:57.736Z,48.70
2018-09-27T18:12:26.183Z,49.20
2018-09-27T18:14:54.574Z,48.50
2018-09-27T18:17:23.044Z,49.10
2018-09-27T18:19:51.597Z,49.60
2018-09-27T18:22:20.090Z,49.10
2018-09-27T18:24:48.521Z,49.30
2018-09-27T18:27:16.953Z,49.30
2018-09-27T18:29:45.543Z,49.10
2018-09-27T18:32:14.061Z,49.00
2018-09-27T18:34:42.843Z,48.60
2018-09-27T18:37:11.683Z,48.50
2018-09-27T18:39:40.122Z,48.50
2018-09-27T18:42:08.778Z,48.50
2018-09-27T18:44:37.454Z,49.90
2018-09-27T18:47:05.991Z,49.90
2018-09-27T18:49:34.562Z,50.20
2018-09-27T18:52:02.957Z,50.80
2018-09-27T18:54:31.462Z,50.60
2018-09-27T18:57:00.052Z,51.00
2018-09-27T18:59:28.737Z,50.60
2018-09-27T19:01:58.232Z,50.10
2018-09-27T19:04:26.806Z,49.90
2018-09-27T19:06:55.366Z,50.00
2018-09-27T19:09:23.838Z,50.10
2018-09-27T19:11:52.488Z,50.10
2018-09-27T19:14:21.017Z,50.50
2018-09-27T19:16:49.916Z,51.00
2018-09-27T19:19:18.407Z,51.00
2018-09-27T19:21:46.984Z,51.70
2018-09-27T19:24:15.605Z,51.90
2018-09-27T19:26:44.034Z,52.60
2018-09-27T19:29:12.539Z,52.70
2018-09-27T19:31:41.009Z,52.40
2018-09-27T19:34:09.604Z,53.20
2018-09-27T19:36:38.039Z,53.70
2018-09-27T19:39:07.966Z,53.00
2018-09-27T19:41:36.395Z,53.20
2018-09-27T19:44:05.012Z,53.90
2018-09-27T19:46:33.866Z,54.00
2018-09-27T19:49:02.279Z,54.10
2018-09-27T19:51:30.817Z,54.50
2018-09-27T19:53:59.265Z,54.20
2018-09-27T19:56:27.850Z,54.40
2018-09-27T19:58:56.249Z,54.70
2018-09-27T20:01:24.865Z,55.30
2018-09-27T20:03:53.797Z,55.00
2018-09-27T20:06:22.579Z,55.10
2018-09-27T20:08:51.136Z,55.20
2018-09-27T20:11:19.695Z,55.10
2018-09-27T20:13:48.167Z,56.00
2018-09-27T20:16:16.827Z,56.00
2018-09-27T20:18:45.208Z,55.80
2018-09-27T20:21:13.738Z,56.10
2018-09-27T20:23:42.345Z,56.50
2018-09-27T20:26:11.103Z,56.90
2018-09-27T20:28:39.737Z,56.70
2018-09-27T20:31:08.259Z,57.60
2018-09-27T20:33:36.716Z,57.10
2018-09-27T20:36:05.379Z,57.30
2018-09-27T20:38:33.956Z,57.50
2018-09-27T20:41:02.459Z,57.40
2018-09-27T20:43:30.934Z,57.20
2018-09-27T20:45:59.807Z,57.10
2018-09-27T20:48:28.419Z,57.10
2018-09-27T20:50:57.076Z,57.30
2018-09-27T20:53:25.643Z,57.50
2018-09-27T20:55:54.202Z,57.40
2018-09-27T20:58:22.658Z,57.70
2018-09-27T21:00:51.196Z,57.80
2018-09-27T21:03:19.774Z,57.70
2018-09-27T21:05:48.117Z,57.60
2018-09-27T21:08:16.551Z,57.90
2018-09-27T21:10:44.938Z,58.20
2018-09-27T21:13:13.311Z,58.10
2018-09-27T21:15:41.906Z,57.80
2018-09-27T21:18:10.406Z,57.90
2018-09-27T21:20:38.834Z,58.20
2018-09-27T21:23:07.207Z,58.20
2018-09-27T21:25:35.739Z,58.30
2018-09-27T21:28:04.206Z,58.00
2018-09-27T21:30:32.842Z,58.20
2018-09-27T21:33:01.355Z,58.40
2018-09-27T21:35:29.976Z,58.30
2018-09-27T21:37:58.418Z,58.30
2018-09-27T21:40:26.832Z,58.50
2018-09-27T21:42:55.403Z,58.30
2018-09-27T21:45:23.822Z,58.60
2018-09-27T21:47:52.217Z,58.70
2018-09-27T21:50:20.648Z,58.80
2018-09-27T21:52:49.003Z,58.90
2018-09-27T21:55:17.383Z,58.90
2018-09-27T21:57:45.840Z,59.30
2018-09-27T22:00:14.234Z,59.20
2018-09-27T22:02:42.791Z,59.20
2018-09-27T22:05:11.257Z,59.80
2018-09-27T22:07:39.758Z,59.80
2018-09-27T22:10:08.327Z,59.80
2018-09-27T22:12:36.859Z,60.30
2018-09-27T22:15:05.719Z,60.20
2018-09-27T22:17:34.195Z,60.20
2018-09-27T22:20:02.954Z,60.40
2018-09-27T22:22:32.084Z,60.30
2018-09-27T22:25:01.367Z,60.60
2018-09-27T22:27:29.966Z,61.40
2018-09-27T22:29:58.440Z,60.60
2018-09-27T22:32:26.777Z,60.90
2018-09-27T22:34:55.261Z,61.10
2018-09-27T22:37:23.659Z,61.20
2018-09-27T22:39:52.065Z,61.30
2018-09-27T22:42:20.529Z,61.60
2018-09-27T22:44:49.058Z,61.70
2018-09-27T22:47:17.447Z,61.70
2018-09-27T22:49:45.970Z,62.30
2018-09-27T22:52:14.571Z,61.90
2018-09-27T22:54:42.980Z,62.20
2018-09-27T22:57:11.627Z,62.30
2018-09-27T22:59:40.038Z,62.20
2018-09-27T23:02:08.537Z,62.20
2018-09-27T23:04:36.938Z,61.70
2018-09-27T23:07:05.324Z,62.50
2018-09-27T23:09:33.775Z,62.50
2018-09-27T23:12:02.314Z,62.50
2018-09-27T23:14:30.725Z,63.50
2018-09-27T23:16:59.119Z,62.80
2018-09-27T23:19:27.512Z,63.00
2018-09-27T23:21:55.915Z,62.80
2018-09-27T23:24:24.459Z,63.00
2018-09-27T23:26:53.005Z,63.30
2018-09-27T23:29:21.347Z,63.50
2018-09-27T23:31:49.892Z,63.60
2018-09-27T23:34:18.238Z,63.60
2018-09-27T23:36:46.618Z,63.70
2018-09-27T23:39:15.179Z,63.70
2018-09-27T23:41:43.702Z,63.80
2018-09-27T23:44:12.142Z,64.00
2018-09-27T23:46:40.758Z,64.10
2018-09-27T23:49:09.321Z,64.30
2018-09-27T23:51:37.730Z,64.20
2018-09-27T23:54:06.275Z,64.20
2018-09-27T23:56:34.720Z,64.30
2018-09-27T23:59:03.098Z,64.40
